createdAt,value
2023-12-26T00:02:46.158Z,13.37
2023-12-26T00:07:48.069Z,13.42
2023-12-26T00:12:50.070Z,13.38
2023-12-26T00:17:52.088Z,13.50
2023-12-26T00:22:54.721Z,13.28
2023-12-26T00:27:56.825Z,13.38
2023-12-26T00:33:01.324Z,13.40
2023-12-26T00:38:05.763Z,13.42
2023-12-26T00:43:09.896Z,13.46
2023-12-26T00:48:15.264Z,13.29
2023-12-26T00:53:22.262Z,13.32
2023-12-26T00:58:27.039Z,13.26
2023-12-26T01:03:29.218Z,13.23
2023-12-26T01:08:31.236Z,13.08
2023-12-26T01:13:36.201Z,13.35
2023-12-26T01:18:38.403Z,13.30
2023-12-26T01:23:40.521Z,13.20
2023-12-26T01:28:44.507Z,13.40
2023-12-26T01:33:46.421Z,13.43
2023-12-26T01:38:48.686Z,13.22
2023-12-26T01:43:50.589Z,13.09
2023-12-26T01:48:55.211Z,13.26
2023-12-26T01:54:00.271Z,13.16
2023-12-26T01:59:03.964Z,13.39
2023-12-26T02:04:06.467Z,13.13
2023-12-26T02:09:13.900Z,13.17
2023-12-26T02:14:15.864Z,13.32
2023-12-26T02:19:20.486Z,13.42
2023-12-26T02:24:22.465Z,13.12
2023-12-26T02:29:26.126Z,13.12
2023-12-26T02:34:28.297Z,13.17
2023-12-26T02:39:30.658Z,13.23
2023-12-26T02:44:32.586Z,13.13
2023-12-26T02:49:34.646Z,13.00
2023-12-26T02:54:37.210Z,12.68
2023-12-26T02:59:39.232Z,12.47
2023-12-26T03:04:41.112Z,12.88
2023-12-26T03:09:43.031Z,12.74
2023-12-26T03:14:45.004Z,12.70
2023-12-26T03:19:46.882Z,12.49
2023-12-26T03:24:49.023Z,12.54
2023-12-26T03:29:51.066Z,12.56
2023-12-26T03:34:53.533Z,12.53
2023-12-26T03:39:58.051Z,12.53
2023-12-26T03:45:00.438Z,12.41
2023-12-26T03:50:07.879Z,12.40
2023-12-26T03:55:09.918Z,12.05
2023-12-26T04:00:12.595Z,11.84
2023-12-26T04:05:14.701Z,12.02
2023-12-26T04:10:16.648Z,11.90
2023-12-26T04:15:18.826Z,11.64
2023-12-26T04:20:23.256Z,11.83
2023-12-26T04:25:27.808Z,11.73
2023-12-26T04:30:29.677Z,11.77
2023-12-26T04:35:31.568Z,11.75
2023-12-26T04:40:33.586Z,11.58
2023-12-26T04:45:39.657Z,11.38
2023-12-26T04:50:41.745Z,11.42
2023-12-26T04:55:43.773Z,11.68
2023-12-26T05:00:45.821Z,11.49
2023-12-26T05:05:47.813Z,11.23
2023-12-26T05:10:49.689Z,11.29
2023-12-26T05:15:51.588Z,11.21
2023-12-26T05:20:53.606Z,11.46
2023-12-26T05:26:01.916Z,11.33
2023-12-26T05:31:14.471Z,11.27
2023-12-26T05:36:16.666Z,11.06
2023-12-26T05:41:20.751Z,11.26
2023-12-26T05:46:24.758Z,11.22
2023-12-26T05:51:26.769Z,11.15
2023-12-26T05:56:28.816Z,11.26
2023-12-26T06:01:30.634Z,11.21
2023-12-26T06:06:32.542Z,11.16
2023-12-26T06:11:36.631Z,10.94
2023-12-26T06:16:38.756Z,10.91
2023-12-26T06:21:40.638Z,11.05
2023-12-26T06:26:42.562Z,11.16
2023-12-26T06:31:44.448Z,11.35
2023-12-26T06:36:46.654Z,11.65
2023-12-26T06:41:48.561Z,11.52
2023-12-26T06:46:50.715Z,11.51
2023-12-26T06:51:52.870Z,11.25
2023-12-26T06:56:54.842Z,11.58
2023-12-26T07:01:56.853Z,11.27
2023-12-26T07:06:58.901Z,11.37
2023-12-26T07:12:00.895Z,11.01
2023-12-26T07:17:05.257Z,10.85
2023-12-26T07:22:08.369Z,10.81
2023-12-26T07:27:13.008Z,10.98
2023-12-26T07:32:14.993Z,10.76
2023-12-26T07:37:16.853Z,10.87
2023-12-26T07:42:21.224Z,10.92
2023-12-26T07:47:23.131Z,10.67
2023-12-26T07:52:24.976Z,10.64
2023-12-26T07:57:29.090Z,10.28
2023-12-26T08:02:30.919Z,10.49
2023-12-26T08:07:32.868Z,10.37
2023-12-26T08:12:34.843Z,10.25
2023-12-26T08:17:37.179Z,10.58
2023-12-26T08:22:39.063Z,10.54
2023-12-26T08:27:41.980Z,10.02
2023-12-26T08:32:43.854Z,10.04
2023-12-26T08:37:45.809Z,10.01
2023-12-26T08:42:48.806Z,10.26
2023-12-26T08:47:51.351Z,9.76
2023-12-26T08:52:56.095Z,9.87
2023-12-26T08:57:58.041Z,10.00
2023-12-26T09:03:06.659Z,10.03
2023-12-26T09:08:09.613Z,9.69
2023-12-26T09:13:12.516Z,10.07
2023-12-26T09:18:14.436Z,9.90
2023-12-26T09:23:19.819Z,10.00
2023-12-26T09:28:22.010Z,10.09
2023-12-26T09:33:23.927Z,10.40
2023-12-26T09:38:25.919Z,10.24
2023-12-26T09:43:28.278Z,10.43
2023-12-26T09:48:34.973Z,10.27
2023-12-26T09:53:45.318Z,10.64
2023-12-26T09:58:47.287Z,10.69
2023-12-26T10:03:51.954Z,10.53
2023-12-26T10:08:54.062Z,10.67
2023-12-26T10:13:56.957Z,10.56
2023-12-26T10:18:58.809Z,10.48
2023-12-26T10:24:00.957Z,10.89
2023-12-26T10:29:03.798Z,10.82
2023-12-26T10:34:19.929Z,11.19
2023-12-26T10:39:21.980Z,10.95
2023-12-26T10:44:30.472Z,11.22
2023-12-26T10:49:36.335Z,10.96
2023-12-26T10:54:42.142Z,11.03
2023-12-26T10:59:44.024Z,11.30
2023-12-26T11:04:46.803Z,11.28
2023-12-26T11:09:49.114Z,11.23
2023-12-26T11:14:53.605Z,11.46
2023-12-26T11:19:55.565Z,11.37
2023-12-26T11:24:59.663Z,11.76
2023-12-26T11:30:01.679Z,11.63
2023-12-26T11:35:03.648Z,11.53
2023-12-26T11:40:05.572Z,11.70
2023-12-26T11:45:07.486Z,11.49
2023-12-26T11:50:10.013Z,11.72
2023-12-26T11:55:14.717Z,11.49
2023-12-26T12:00:17.073Z,11.66
2023-12-26T12:05:18.959Z,11.63
2023-12-26T12:10:21.166Z,11.84
2023-12-26T12:15:23.240Z,11.71
2023-12-26T12:20:25.400Z,11.79
2023-12-26T12:25:27.340Z,11.80
2023-12-26T12:30:29.280Z,11.60
2023-12-26T12:35:31.178Z,11.89
2023-12-26T12:40:33.177Z,11.88
2023-12-26T12:45:35.356Z,12.01
2023-12-26T12:50:37.194Z,11.89
2023-12-26T12:55:42.272Z,11.88
2023-12-26T13:00:44.920Z,12.16
2023-12-26T13:05:46.917Z,11.97
2023-12-26T13:10:48.955Z,11.98
2023-12-26T13:15:53.161Z,11.74
2023-12-26T13:20:57.406Z,11.76
2023-12-26T13:26:04.921Z,11.77
2023-12-26T13:31:07.149Z,11.92
2023-12-26T13:36:09.176Z,11.92
2023-12-26T13:41:14.386Z,12.13
2023-12-26T13:46:16.601Z,11.99
2023-12-26T13:51:19.296Z,12.22
2023-12-26T13:56:21.593Z,12.04
2023-12-26T14:01:24.446Z,11.98
2023-12-26T14:06:29.910Z,12.03
2023-12-26T14:11:36.747Z,12.05
2023-12-26T14:16:38.930Z,12.11
2023-12-26T14:21:44.295Z,11.96
2023-12-26T14:26:46.245Z,12.04
2023-12-26T14:31:48.426Z,11.85
2023-12-26T14:36:51.353Z,12.12
2023-12-26T14:41:53.319Z,11.83
2023-12-26T14:46:55.175Z,11.92
2023-12-26T14:51:57.270Z,11.69
2023-12-26T14:56:59.292Z,11.98
2023-12-26T15:02:02.945Z,12.10
2023-12-26T15:07:07.039Z,12.03
2023-12-26T15:12:09.243Z,11.97
2023-12-26T15:17:14.580Z,11.71
2023-12-26T15:22:17.044Z,11.62
2023-12-26T15:27:19.062Z,11.52
2023-12-26T15:32:21.386Z,11.86
2023-12-26T15:37:23.387Z,11.70
2023-12-26T15:42:25.556Z,11.59
2023-12-26T15:47:27.391Z,11.27
2023-12-26T15:52:29.192Z,11.36
2023-12-26T15:57:33.497Z,11.16
2023-12-26T16:02:37.211Z,11.59
2023-12-26T16:07:39.419Z,11.70
2023-12-26T16:12:41.854Z,11.70
2023-12-26T16:17:46.206Z,11.89
2023-12-26T16:22:48.201Z,11.82
2023-12-26T16:27:49.955Z,11.74
2023-12-26T16:32:52.171Z,11.69
2023-12-26T16:37:54.174Z,11.64
2023-12-26T16:42:58.258Z,11.42
2023-12-26T16:48:04.243Z,11.63
2023-12-26T16:53:06.097Z,11.40
2023-12-26T16:58:10.334Z,11.41
2023-12-26T17:03:12.247Z,11.35
2023-12-26T17:08:16.493Z,11.61
2023-12-26T17:13:20.459Z,11.31
2023-12-26T17:18:23.501Z,11.53
2023-12-26T17:23:25.435Z,11.64
2023-12-26T17:28:27.195Z,11.65
2023-12-26T17:33:31.454Z,11.37
2023-12-26T17:38:33.468Z,11.57
2023-12-26T17:43:37.858Z,11.73
2023-12-26T17:48:39.905Z,11.53
2023-12-26T17:53:41.880Z,11.42
2023-12-26T17:58:43.779Z,11.57
2023-12-26T18:03:46.218Z,11.54
2023-12-26T18:08:48.242Z,11.69
2023-12-26T18:13:50.159Z,11.42
2023-12-26T18:18:52.248Z,11.43
2023-12-26T18:23:54.465Z,11.50
2023-12-26T18:28:58.453Z,11.61
2023-12-26T18:34:03.102Z,11.66
2023-12-26T18:39:05.322Z,11.56
2023-12-26T18:44:10.123Z,11.31
2023-12-26T18:49:12.683Z,11.23
2023-12-26T18:54:15.330Z,11.23
2023-12-26T18:59:18.638Z,11.50
2023-12-26T19:04:21.058Z,11.72
2023-12-26T19:09:23.267Z,11.48
2023-12-26T19:14:27.330Z,11.43
2023-12-26T19:19:31.791Z,11.38
2023-12-26T19:24:33.743Z,11.33
2023-12-26T19:29:37.759Z,11.27
2023-12-26T19:34:39.548Z,11.29
2023-12-26T19:39:41.544Z,11.38
2023-12-26T19:44:46.085Z,11.20
2023-12-26T19:49:48.171Z,11.44
2023-12-26T19:54:50.384Z,11.27
2023-12-26T19:59:52.424Z,11.24
2023-12-26T20:04:54.570Z,11.23
2023-12-26T20:09:58.181Z,11.29
2023-12-26T20:15:00.438Z,11.21
2023-12-26T20:20:02.751Z,11.47
2023-12-26T20:25:08.379Z,11.33
2023-12-26T20:30:12.580Z,11.40
2023-12-26T20:35:16.673Z,11.18
2023-12-26T20:40:18.524Z,11.42
2023-12-26T20:45:20.733Z,11.33
2023-12-26T20:50:23.885Z,11.32
2023-12-26T20:55:27.195Z,11.14
2023-12-26T21:00:31.659Z,11.41
2023-12-26T21:05:33.789Z,11.61
2023-12-26T21:10:35.917Z,11.52
2023-12-26T21:15:40.311Z,11.50
2023-12-26T21:20:42.440Z,11.61
2023-12-26T21:25:46.356Z,11.41
2023-12-26T21:30:48.986Z,11.62
2023-12-26T21:35:52.094Z,11.57
2023-12-26T21:40:56.916Z,11.50
2023-12-26T21:45:59.350Z,11.27
2023-12-26T21:51:01.135Z,11.69
2023-12-26T21:56:10.377Z,11.73
2023-12-26T22:01:12.378Z,11.71
2023-12-26T22:06:14.310Z,11.75
2023-12-26T22:11:16.806Z,11.98
2023-12-26T22:16:22.928Z,11.77
2023-12-26T22:21:25.250Z,11.98
2023-12-26T22:26:29.569Z,11.74
2023-12-26T22:31:31.433Z,12.11
2023-12-26T22:36:33.265Z,12.18
2023-12-26T22:41:35.382Z,12.13
2023-12-26T22:46:39.435Z,11.85
2023-12-26T22:51:43.701Z,12.05
2023-12-26T22:56:45.990Z,12.39
2023-12-26T23:01:51.687Z,12.55
2023-12-26T23:06:53.618Z,12.27
2023-12-26T23:11:57.749Z,12.61
2023-12-26T23:16:59.768Z,12.49
2023-12-26T23:22:04.249Z,12.60
2023-12-26T23:27:06.070Z,12.67
2023-12-26T23:32:10.232Z,12.44
2023-12-26T23:37:12.078Z,12.71
2023-12-26T23:42:16.304Z,12.88
2023-12-26T23:47:18.741Z,13.00
2023-12-26T23:52:20.766Z,12.98
2023-12-26T23:57:24.894Z,13.30
